Time;durP1;ratioP1;P1;durP2;ratioP2;P2;SDS_P1;SDS_P2;PMS_P1;PMS_P2;Temp;Humidity;BMP_temperature;BMP_pressure;BME280_temperature;BME280_humidity;BME280_pressure;Samples;Min_cycle;Max_cycle;Signal;HPM_P1;HPM_P2
2021/06/22 00:02:35;;;;;;;7.43;4.70;;;;;;;21.37;55.50;99399.84;154167;1098;103490;-72
2021/06/22 00:05:38;;;;;;;6.23;5.40;;;;;;;21.36;55.53;99398.17;154665;1093;103109;-71
2021/06/22 00:08:41;;;;;;;7.40;5.50;;;;;;;21.28;55.51;99399.40;154584;1093;103184;-71
2021/06/22 00:11:44;;;;;;;8.07;4.63;;;;;;;21.22;56.02;99405.81;154622;1093;103123;-71
2021/06/22 00:14:47;;;;;;;6.65;3.95;;;;;;;21.12;56.01;99395.59;154637;1098;103152;-70
2021/06/22 00:17:51;;;;;;;6.43;4.53;;;;;;;21.13;56.28;99394.55;154517;1094;103267;-72
2021/06/22 00:20:54;;;;;;;7.70;4.50;;;;;;;21.16;56.28;99399.46;154820;1093;103569;-69
2021/06/22 00:23:57;;;;;;;5.30;4.40;;;;;;;21.13;56.29;99399.13;154462;1093;103116;-72
2021/06/22 00:27:00;;;;;;;7.73;4.80;;;;;;;21.03;56.36;99394.34;154581;1098;103125;-72
2021/06/22 00:30:04;;;;;;;6.53;4.60;;;;;;;20.96;56.49;99393.68;154583;1098;103189;-73
2021/06/22 00:33:07;;;;;;;5.43;4.60;;;;;;;20.92;56.56;99395.20;154589;1093;103269;-72
2021/06/22 00:36:10;;;;;;;5.30;4.65;;;;;;;20.87;56.93;99401.36;154617;1092;103190;-73
2021/06/22 00:39:13;;;;;;;5.33;4.83;;;;;;;20.82;56.75;99393.13;154561;1093;103179;-71
2021/06/22 00:42:18;;;;;;;8.20;4.90;;;;;;;20.75;57.00;99393.28;154642;1098;104478;-71
2021/06/22 00:45:27;;;;;;;5.93;5.30;;;;;;;20.68;57.32;99395.30;154587;1093;103190;-71
2021/06/22 00:48:32;;;;;;;6.50;4.80;;;;;;;20.69;57.38;99399.67;154175;1098;103178;-70
2021/06/22 00:51:36;;;;;;;6.03;4.60;;;;;;;20.71;57.62;99391.30;154555;1098;103125;-70
2021/06/22 00:54:41;;;;;;;6.10;4.53;;;;;;;20.73;57.75;99392.70;154483;1093;103184;-70
2021/06/22 00:57:44;;;;;;;6.87;4.70;;;;;;;20.74;57.59;99391.62;154549;1094;103193;-72
2021/06/22 01:00:47;;;;;;;8.27;5.40;;;;;;;20.69;57.63;99396.11;154190;1093;103290;-71
2021/06/22 01:03:50;;;;;;;5.27;4.77;;;;;;;20.65;57.79;99393.09;154487;1093;103208;-70
2021/06/22 01:06:55;;;;;;;6.23;4.80;;;;;;;20.62;57.85;99385.42;154605;1098;103193;-71
2021/06/22 01:09:59;;;;;;;5.80;4.83;;;;;;;20.65;57.75;99381.39;154150;1093;103150;-72
2021/06/22 01:13:02;;;;;;;6.90;5.33;;;;;;;20.63;57.93;99378.11;154605;1098;103184;-70
2021/06/22 01:16:06;;;;;;;7.33;5.43;;;;;;;20.50;57.95;99385.42;154581;1093;103185;-71
2021/06/22 01:19:11;;;;;;;6.30;4.93;;;;;;;20.50;58.14;99384.61;154662;1098;103289;-70
2021/06/22 01:22:23;;;;;;;8.43;6.20;;;;;;;20.47;58.47;99376.95;154557;1093;103485;-70
2021/06/22 01:25:27;;;;;;;8.40;5.40;;;;;;;20.41;58.41;99376.02;154544;1098;103181;-70
2021/06/22 01:28:32;;;;;;;5.33;4.83;;;;;;;20.33;58.47;99390.76;154433;1093;103184;-71
2021/06/22 01:31:40;;;;;;;6.93;5.27;;;;;;;20.35;58.67;99398.66;154135;1094;103174;-70
2021/06/22 01:34:44;;;;;;;5.73;4.87;;;;;;;20.33;58.65;99384.52;154191;1093;103310;-71
2021/06/22 01:37:52;;;;;;;7.20;5.37;;;;;;;20.34;58.87;99375.31;154236;1099;103127;-71
2021/06/22 01:40:56;;;;;;;5.80;5.20;;;;;;;20.23;58.79;99379.71;154271;1093;103211;-71
2021/06/22 01:43:59;;;;;;;5.80;5.20;;;;;;;20.16;58.79;99384.42;154567;1098;103117;-71
2021/06/22 01:47:05;;;;;;;7.37;5.10;;;;;;;20.07;59.01;99378.53;154612;1093;103163;-70
2021/06/22 01:50:10;;;;;;;7.60;5.47;;;;;;;20.00;59.02;99383.27;154458;1093;103279;-67
2021/06/22 01:53:13;;;;;;;7.30;6.00;;;;;;;19.93;59.20;99377.95;154515;1098;103190;-70
2021/06/22 01:56:17;;;;;;;6.90;5.70;;;;;;;19.89;59.45;99382.20;154614;1098;103567;-71
2021/06/22 01:59:24;;;;;;;6.17;5.57;;;;;;;19.88;59.38;99377.86;154547;1098;103256;-71
2021/06/22 02:02:34;;;;;;;5.37;4.43;;;;;;;19.95;59.59;99375.83;154597;1093;103187;-70
2021/06/22 02:05:45;;;;;;;7.33;5.20;;;;;;;19.99;59.58;99374.30;154588;1093;103138;-68
2021/06/22 02:08:48;;;;;;;5.63;4.83;;;;;;;19.99;59.48;99379.72;154096;1098;103137;-70
2021/06/22 02:11:51;;;;;;;5.50;5.00;;;;;;;20.01;59.62;99382.19;154399;1098;103189;-70
2021/06/22 02:14:54;;;;;;;6.20;5.17;;;;;;;20.00;59.62;99386.79;154460;1099;103104;-68
2021/06/22 02:17:59;;;;;;;9.20;5.57;;;;;;;19.97;59.72;99389.14;154515;1093;103131;-68
2021/06/22 02:21:06;;;;;;;5.87;5.27;;;;;;;19.96;59.75;99396.45;154464;1093;103112;-68
2021/06/22 02:24:10;;;;;;;7.13;5.40;;;;;;;19.89;59.83;99395.73;154415;1098;103130;-68
2021/06/22 02:27:23;;;;;;;6.73;5.60;;;;;;;19.90;59.99;99400.11;154497;1093;103109;-69
2021/06/22 02:30:27;;;;;;;6.50;5.90;;;;;;;19.95;59.94;99392.08;154001;1098;103131;-70
2021/06/22 02:33:31;;;;;;;7.43;5.23;;;;;;;19.91;60.10;99393.62;153989;1093;103206;-68
2021/06/22 02:36:34;;;;;;;7.30;4.77;;;;;;;19.88;60.16;99387.84;154082;1098;103215;-69
2021/06/22 02:39:38;;;;;;;8.40;5.23;;;;;;;19.89;60.35;99400.34;154530;1093;103101;-66
2021/06/22 02:42:42;;;;;;;7.10;5.35;;;;;;;19.91;60.25;99403.63;154472;1098;103192;-70
2021/06/22 02:45:49;;;;;;;5.73;5.23;;;;;;;19.90;60.36;99408.23;154424;1094;103595;-71
2021/06/22 02:48:57;;;;;;;7.53;5.33;;;;;;;19.92;60.46;99406.11;154538;1092;103534;-71
2021/06/22 02:52:01;;;;;;;6.70;5.70;;;;;;;19.99;60.38;99403.27;154544;1098;103192;-72
2021/06/22 02:55:07;;;;;;;6.67;5.30;;;;;;;20.09;60.53;99405.38;154486;1094;103241;-72
2021/06/22 02:58:10;;;;;;;5.97;5.47;;;;;;;20.17;60.17;99405.05;154127;1093;103515;-72
2021/06/22 03:01:15;;;;;;;6.33;5.70;;;;;;;20.20;60.53;99391.83;154517;1093;103125;-71
2021/06/22 03:04:18;;;;;;;7.20;6.07;;;;;;;20.28;60.40;99397.95;154531;1093;103122;-71
2021/06/22 03:07:21;;;;;;;8.83;5.50;;;;;;;20.33;60.37;99406.20;154717;1098;103573;-71
2021/06/22 03:10:26;;;;;;;6.97;4.70;;;;;;;20.39;60.60;99408.77;154387;1098;103229;-72
2021/06/22 03:13:30;;;;;;;5.47;4.90;;;;;;;20.50;60.54;99411.71;153815;1098;103288;-72
2021/06/22 03:16:34;;;;;;;8.70;5.53;;;;;;;20.62;60.55;99409.81;154410;1094;103094;-72
2021/06/22 03:19:37;;;;;;;6.57;5.50;;;;;;;20.81;60.50;99409.66;154105;1093;103126;-71
2021/06/22 03:22:41;;;;;;;7.53;5.70;;;;;;;21.05;60.50;99407.66;154492;1093;103218;-71
2021/06/22 03:25:44;;;;;;;7.23;5.60;;;;;;;21.31;60.37;99401.63;154056;1093;103243;-72
2021/06/22 03:28:48;;;;;;;8.80;5.77;;;;;;;21.55;60.15;99407.76;154437;1092;103126;-72
2021/06/22 03:32:11;;;;;;;9.83;5.60;;;;;;;21.79;60.12;99398.63;154319;1094;104660;-72
2021/06/22 03:35:16;;;;;;;6.63;5.25;;;;;;;21.99;60.07;99400.84;154545;1098;103189;-72
2021/06/22 03:38:19;;;;;;;5.90;5.05;;;;;;;22.21;59.91;99412.59;154545;1098;103251;-72
2021/06/22 03:41:22;;;;;;;5.70;4.40;;;;;;;22.44;59.89;99411.58;154484;1098;103132;-72
2021/06/22 03:44:26;;;;;;;6.73;4.83;;;;;;;22.70;59.69;99418.14;154593;1098;103122;-73
2021/06/22 03:47:37;;;;;;;5.67;4.53;;;;;;;22.98;59.92;99421.73;154439;1092;103194;-71
2021/06/22 03:50:40;;;;;;;5.43;4.93;;;;;;;23.23;59.54;99421.22;154461;1092;103711;-71
2021/06/22 03:53:44;;;;;;;7.17;5.47;;;;;;;23.46;59.78;99414.63;154383;1098;103206;-71
2021/06/22 03:56:48;;;;;;;6.65;5.20;;;;;;;23.71;59.28;99413.17;154527;1098;103186;-71
2021/06/22 03:59:58;;;;;;;10.30;6.13;;;;;;;23.96;59.45;99409.03;154555;1098;103185;-71
2021/06/22 04:03:02;;;;;;;8.30;6.05;;;;;;;24.14;59.39;99407.81;154470;1093;103028;-72
2021/06/22 04:06:09;;;;;;;8.60;6.20;;;;;;;24.28;59.17;99414.42;154569;1093;103190;-71
2021/06/22 04:09:12;;;;;;;6.43;5.60;;;;;;;24.45;58.88;99406.06;154449;1098;103350;-71
2021/06/22 04:12:21;;;;;;;10.40;6.43;;;;;;;24.65;58.84;99402.62;154461;1098;103138;-71
2021/06/22 04:15:24;;;;;;;8.43;5.87;;;;;;;24.75;58.64;99402.67;154473;1098;103140;-71
2021/06/22 04:18:28;;;;;;;6.43;5.77;;;;;;;24.88;58.83;99396.72;154500;1093;103115;-72
2021/06/22 04:21:37;;;;;;;5.90;5.30;;;;;;;25.02;58.58;99397.02;154481;1093;103194;-71
2021/06/22 04:24:40;;;;;;;7.05;5.15;;;;;;;25.20;58.82;99392.14;154457;1098;103257;-71
2021/06/22 04:27:44;;;;;;;8.07;5.70;;;;;;;25.36;58.29;99385.61;154483;1098;103197;-71
2021/06/22 04:30:47;;;;;;;9.17;6.07;;;;;;;25.55;58.27;99385.89;154475;1098;103118;-71
2021/06/22 04:33:50;;;;;;;8.35;5.85;;;;;;;25.70;58.02;99393.27;154483;1094;103132;-71
2021/06/22 04:36:53;;;;;;;8.40;5.90;;;;;;;25.80;57.83;99393.26;154504;1098;103153;-71
2021/06/22 04:39:56;;;;;;;7.80;5.93;;;;;;;25.95;57.81;99395.19;154419;1093;103235;-72
2021/06/22 04:43:01;;;;;;;7.90;5.77;;;;;;;26.12;57.76;99414.03;154521;1098;103193;-71
2021/06/22 04:46:04;;;;;;;9.33;5.80;;;;;;;26.23;57.59;99412.91;154334;1098;103073;-71
2021/06/22 04:49:07;;;;;;;13.03;6.37;;;;;;;26.33;57.49;99424.90;154482;1092;103557;-71
2021/06/22 04:52:11;;;;;;;10.10;6.50;;;;;;;26.46;57.28;99418.84;154465;1093;103211;-71
2021/06/22 04:55:15;;;;;;;8.23;5.80;;;;;;;26.53;57.20;99413.90;154486;1098;103232;-71
2021/06/22 04:58:19;;;;;;;10.30;6.40;;;;;;;26.62;57.06;99417.73;154565;1098;103112;-72
2021/06/22 05:01:22;;;;;;;9.93;6.23;;;;;;;26.71;56.88;99415.22;154539;1093;103186;-72
2021/06/22 05:04:25;;;;;;;11.90;6.80;;;;;;;26.83;56.83;99423.13;154524;1098;103176;-72
2021/06/22 05:07:28;;;;;;;9.90;6.70;;;;;;;26.88;56.45;99423.08;154461;1098;103112;-72
2021/06/22 05:10:32;;;;;;;8.95;6.43;;;;;;;26.92;56.40;99426.88;154190;1098;103180;-72
2021/06/22 05:13:35;;;;;;;8.00;6.53;;;;;;;26.96;56.47;99430.70;154523;1093;103178;-72
2021/06/22 05:16:38;;;;;;;8.63;6.77;;;;;;;27.06;56.44;99440.80;155249;1098;103557;-70
2021/06/22 05:19:41;;;;;;;12.47;7.00;;;;;;;27.17;56.27;99444.28;154609;1093;103190;-72
2021/06/22 05:22:44;;;;;;;10.00;6.40;;;;;;;27.21;56.14;99451.67;154496;1093;103177;-71
2021/06/22 05:25:47;;;;;;;14.07;6.30;;;;;;;27.32;56.35;99455.17;154511;1093;103182;-72
2021/06/22 05:28:50;;;;;;;9.43;6.43;;;;;;;27.41;56.29;99447.19;154496;1098;103189;-71
2021/06/22 05:31:53;;;;;;;10.13;6.37;;;;;;;27.52;55.87;99445.17;154565;1098;103201;-71
2021/06/22 05:34:56;;;;;;;10.97;6.67;;;;;;;27.59;55.63;99446.48;154459;1093;103092;-71
2021/06/22 05:38:00;;;;;;;9.73;7.00;;;;;;;27.65;55.90;99444.53;154520;1093;103150;-70
2021/06/22 05:41:03;;;;;;;11.67;6.23;;;;;;;27.72;55.28;99435.99;154452;1098;103192;-70
2021/06/22 05:44:07;;;;;;;11.47;6.60;;;;;;;27.80;55.50;99446.33;154532;1098;103125;-70
2021/06/22 05:47:10;;;;;;;9.20;5.95;;;;;;;27.83;55.14;99462.22;154501;1098;103208;-69
2021/06/22 05:50:13;;;;;;;9.53;6.23;;;;;;;27.89;55.08;99460.25;154438;1093;103124;-71
2021/06/22 05:53:16;;;;;;;8.30;5.93;;;;;;;27.93;54.86;99461.34;154508;1093;103278;-70
2021/06/22 05:56:19;;;;;;;13.00;6.78;;;;;;;27.95;55.27;99445.42;154649;1098;103265;-69
2021/06/22 05:59:22;;;;;;;11.60;6.27;;;;;;;28.00;55.28;99446.19;154535;1098;103100;-69
2021/06/22 06:02:25;;;;;;;11.43;7.00;;;;;;;28.02;54.67;99432.16;154505;1098;104262;-70
2021/06/22 06:05:28;;;;;;;14.75;7.50;;;;;;;28.01;55.13;99436.03;154468;1098;103189;-70
2021/06/22 06:08:33;;;;;;;9.90;6.60;;;;;;;28.07;54.64;99440.36;154185;1098;103176;-69
2021/06/22 06:11:36;;;;;;;10.27;7.17;;;;;;;28.08;54.35;99452.98;153888;1096;103203;-70
2021/06/22 06:14:39;;;;;;;13.07;7.20;;;;;;;28.06;54.62;99446.96;153860;1100;103193;-69
2021/06/22 06:17:43;;;;;;;10.77;6.63;;;;;;;28.05;54.22;99447.24;153819;1093;103125;-69
2021/06/22 06:20:46;;;;;;;11.67;6.90;;;;;;;28.08;54.46;99446.65;153921;1093;103128;-70
2021/06/22 06:23:49;;;;;;;9.03;6.60;;;;;;;28.09;54.82;99440.88;153853;1100;103225;-69
2021/06/22 06:27:01;;;;;;;11.50;7.15;;;;;;;28.10;53.97;99441.69;153884;1100;103404;-70
2021/06/22 06:30:08;;;;;;;11.03;6.80;;;;;;;28.03;54.30;99441.23;153899;1100;103116;-69
2021/06/22 06:33:12;;;;;;;9.40;6.70;;;;;;;28.02;54.44;99448.62;153819;1093;103107;-70
2021/06/22 06:36:16;;;;;;;11.73;6.73;;;;;;;28.05;54.15;99449.98;153906;1094;103209;-69
2021/06/22 06:39:19;;;;;;;11.33;6.77;;;;;;;28.03;54.39;99447.53;153837;1093;103250;-71
2021/06/22 06:42:22;;;;;;;11.97;6.70;;;;;;;28.06;54.34;99443.38;153944;1093;103276;-70
2021/06/22 06:45:25;;;;;;;13.15;7.30;;;;;;;28.04;54.28;99446.41;153798;1093;103192;-70
2021/06/22 06:48:28;;;;;;;12.50;7.10;;;;;;;28.07;54.46;99448.58;153813;1100;103215;-69
2021/06/22 06:51:32;;;;;;;12.27;6.67;;;;;;;28.10;54.50;99447.17;153843;1094;103192;-69
2021/06/22 06:54:35;;;;;;;11.30;7.20;;;;;;;28.16;54.07;99455.08;153905;1100;103263;-70
2021/06/22 06:57:38;;;;;;;9.10;6.33;;;;;;;28.19;54.21;99453.67;153806;1100;103569;-69
2021/06/22 07:00:41;;;;;;;12.53;6.10;;;;;;;28.21;53.55;99445.97;153831;1100;103576;-69
2021/06/22 07:03:44;;;;;;;11.23;6.50;;;;;;;28.24;54.13;99445.41;153813;1100;103121;-69
2021/06/22 07:06:47;;;;;;;11.73;6.90;;;;;;;28.26;54.04;99456.91;153840;1093;103122;-69
2021/06/22 07:09:50;;;;;;;12.17;6.73;;;;;;;28.30;53.86;99446.17;153888;1100;103171;-70
2021/06/22 07:12:56;;;;;;;10.58;6.53;;;;;;;28.35;54.04;99444.19;153821;1100;103356;-70
2021/06/22 07:16:00;;;;;;;10.00;6.70;;;;;;;28.37;53.63;99446.66;153847;1094;103150;-69
2021/06/22 07:19:05;;;;;;;9.87;6.53;;;;;;;28.43;53.71;99442.73;153791;1100;103225;-69
2021/06/22 07:22:08;;;;;;;11.25;6.30;;;;;;;28.51;53.56;99438.53;153779;1094;103216;-69
2021/06/22 07:25:13;;;;;;;10.35;5.98;;;;;;;28.56;53.64;99438.48;153837;1093;103201;-69
2021/06/22 07:28:16;;;;;;;9.93;6.37;;;;;;;28.53;53.56;99441.83;153919;1093;103184;-69
2021/06/22 07:31:19;;;;;;;10.03;5.77;;;;;;;28.58;53.55;99434.36;153884;1100;103210;-68
2021/06/22 07:34:23;;;;;;;13.90;6.75;;;;;;;28.66;53.70;99434.80;153919;1100;103124;-68
2021/06/22 07:37:26;;;;;;;12.40;6.33;;;;;;;28.73;53.31;99441.56;153783;1100;103217;-69
2021/06/22 07:40:29;;;;;;;8.13;6.20;;;;;;;28.83;53.41;99451.63;153820;1100;103487;-68
2021/06/22 07:43:32;;;;;;;12.07;6.27;;;;;;;28.87;53.22;99457.33;153962;1100;103216;-68
2021/06/22 07:46:35;;;;;;;8.17;5.87;;;;;;;28.89;52.32;99455.94;153834;1093;103128;-69
2021/06/22 07:49:38;;;;;;;9.67;5.47;;;;;;;28.97;52.89;99458.02;153867;1093;103240;-68
2021/06/22 07:52:42;;;;;;;10.33;6.03;;;;;;;29.05;52.50;99470.28;153873;1100;103222;-68
2021/06/22 07:55:45;;;;;;;8.85;5.80;;;;;;;29.13;52.47;99472.39;153972;1093;103309;-68
2021/06/22 07:58:48;;;;;;;10.85;5.53;;;;;;;29.17;52.23;99469.87;154483;1098;103267;-68
2021/06/22 08:01:51;;;;;;;8.53;5.50;;;;;;;29.20;51.74;99474.78;154311;1098;103127;-68
2021/06/22 08:04:54;;;;;;;11.50;6.13;;;;;;;29.28;52.29;99465.88;154271;1093;103215;-69
2021/06/22 08:07:57;;;;;;;10.80;5.57;;;;;;;29.36;51.83;99475.38;154074;1098;104326;-69
2021/06/22 08:11:01;;;;;;;9.47;5.17;;;;;;;29.43;51.36;99474.98;154511;1093;103125;-69
2021/06/22 08:14:04;;;;;;;11.47;5.23;;;;;;;29.46;51.44;99469.72;154442;1093;104779;-69
2021/06/22 08:17:07;;;;;;;10.27;4.90;;;;;;;29.47;50.96;99476.05;154581;1098;103099;-69
2021/06/22 08:20:13;;;;;;;10.30;5.30;;;;;;;29.55;51.09;99489.12;154479;1098;103110;-69
2021/06/22 08:23:16;;;;;;;9.83;5.40;;;;;;;29.58;50.88;99477.51;154492;1098;103122;-69
2021/06/22 08:26:19;;;;;;;6.70;4.93;;;;;;;29.57;51.07;99481.39;154532;1093;103219;-69
2021/06/22 08:29:22;;;;;;;8.93;4.80;;;;;;;29.62;50.28;99484.06;154457;1093;103304;-69
2021/06/22 08:32:25;;;;;;;7.73;4.63;;;;;;;29.69;50.13;99481.73;154456;1098;103125;-69
2021/06/22 08:35:28;;;;;;;7.63;4.80;;;;;;;29.80;50.25;99479.69;154532;1098;103198;-69
2021/06/22 08:38:32;;;;;;;12.20;5.20;;;;;;;29.88;50.34;99491.93;154487;1093;103222;-69
2021/06/22 08:41:36;;;;;;;8.15;5.10;;;;;;;29.93;49.33;99494.61;154512;1093;103184;-68
2021/06/22 08:44:40;;;;;;;6.63;4.47;;;;;;;30.04;50.17;99495.23;154470;1098;103289;-69
2021/06/22 08:47:43;;;;;;;9.07;4.70;;;;;;;30.18;49.75;99501.61;154324;1098;103123;-69
2021/06/22 08:50:48;;;;;;;7.37;4.67;;;;;;;30.32;49.71;99501.66;154319;1098;103173;-69
2021/06/22 08:53:51;;;;;;;12.20;5.20;;;;;;;30.42;49.59;99501.46;155269;1093;103120;-69
2021/06/22 08:56:56;;;;;;;10.13;4.80;;;;;;;30.58;48.86;99501.98;154261;1099;103262;-69
2021/06/22 08:59:59;;;;;;;10.73;4.67;;;;;;;30.67;47.99;99502.91;153871;1100;103184;-69
2021/06/22 09:03:05;;;;;;;7.90;4.98;;;;;;;30.77;48.08;99512.09;153792;1094;103128;-69
2021/06/22 09:06:08;;;;;;;8.47;4.40;;;;;;;30.88;47.92;99516.28;153840;1100;103138;-70
2021/06/22 09:09:12;;;;;;;7.80;4.33;;;;;;;30.95;46.99;99508.46;153818;1100;103203;-69
2021/06/22 09:12:16;;;;;;;7.67;4.23;;;;;;;30.96;47.82;99509.27;153998;1098;103206;-69
2021/06/22 09:15:21;;;;;;;8.75;4.35;;;;;;;30.93;47.11;99518.97;153866;1100;103270;-68
2021/06/22 09:18:27;;;;;;;6.10;4.00;;;;;;;30.99;47.21;99522.44;154059;1098;103125;-69
2021/06/22 09:21:38;;;;;;;8.43;4.30;;;;;;;31.04;46.77;99511.30;154204;1093;103197;-69
2021/06/22 09:24:59;;;;;;;5.90;4.27;;;;;;;31.10;46.54;99515.56;154480;1098;103238;-69
2021/06/22 09:28:03;;;;;;;8.10;4.27;;;;;;;31.16;45.23;99514.36;154449;1098;103245;-69
2021/06/22 09:31:08;;;;;;;8.17;4.27;;;;;;;31.15;45.99;99512.71;154510;1093;103291;-69
2021/06/22 09:34:13;;;;;;;5.53;3.80;;;;;;;31.18;45.17;99503.00;153907;1100;103195;-69
2021/06/22 09:37:16;;;;;;;5.83;3.27;;;;;;;31.25;45.30;99506.16;154414;1094;103122;-68
2021/06/22 09:40:27;;;;;;;8.05;3.80;;;;;;;31.31;45.08;99494.73;154435;1093;103124;-69
2021/06/22 09:43:36;;;;;;;5.23;3.50;;;;;;;31.36;44.85;99499.30;154512;1098;103259;-69
2021/06/22 09:46:42;;;;;;;5.27;3.40;;;;;;;31.42;44.77;99500.00;154487;1093;103314;-71
2021/06/22 09:49:45;;;;;;;5.17;3.23;;;;;;;31.45;44.09;99496.63;154515;1098;103237;-69
2021/06/22 09:52:48;;;;;;;4.37;3.20;;;;;;;31.39;44.13;99495.09;154499;1093;103189;-69
2021/06/22 09:55:51;;;;;;;5.23;3.23;;;;;;;31.37;43.69;99486.32;154451;1098;103243;-69
2021/06/22 09:58:54;;;;;;;7.00;3.67;;;;;;;31.35;43.58;99478.36;154481;1098;103373;-69
2021/06/22 10:02:08;;;;;;;6.95;3.45;;;;;;;31.33;42.02;99477.05;154404;1093;103391;-71
2021/06/22 10:05:16;;;;;;;9.07;3.10;;;;;;;31.17;41.94;99476.59;154491;1098;103125;-69
2021/06/22 10:08:20;;;;;;;6.60;3.30;;;;;;;31.12;40.84;99477.49;154498;1098;104205;-69
2021/06/22 10:11:41;;;;;;;9.23;3.30;;;;;;;31.08;41.41;99473.73;154499;1093;103180;-69
2021/06/22 10:14:46;;;;;;;9.30;3.23;;;;;;;31.10;42.05;99468.72;154520;1093;103250;-69
2021/06/22 10:17:49;;;;;;;5.33;3.00;;;;;;;31.15;42.05;99460.36;154492;1098;103268;-69
2021/06/22 10:20:52;;;;;;;5.63;3.30;;;;;;;31.20;41.83;99460.25;154455;1098;103121;-69
2021/06/22 10:23:57;;;;;;;4.77;2.97;;;;;;;31.25;41.28;99457.36;154449;1098;103183;-69
2021/06/22 10:27:01;;;;;;;8.23;3.20;;;;;;;31.28;41.45;99456.75;154423;1093;103163;-68
2021/06/22 10:30:08;;;;;;;6.50;3.63;;;;;;;31.34;41.38;99448.38;154479;1098;103297;-69
2021/06/22 10:33:11;;;;;;;6.50;3.13;;;;;;;31.37;41.38;99450.48;154476;1093;103287;-68
2021/06/22 10:36:28;;;;;;;8.20;3.00;;;;;;;31.40;40.92;99452.63;154471;1093;103189;-69
2021/06/22 10:39:36;;;;;;;4.40;2.97;;;;;;;31.42;40.61;99456.70;154435;1098;103120;-69
2021/06/22 10:42:43;;;;;;;7.17;3.83;;;;;;;31.47;40.45;99451.11;154513;1093;103602;-69
2021/06/22 10:45:57;;;;;;;5.65;3.40;;;;;;;31.52;40.28;99443.83;154519;1098;103716;-69
2021/06/22 10:49:19;;;;;;;7.13;3.57;;;;;;;31.56;40.54;99440.13;154561;1098;103275;-69
2021/06/22 10:52:56;;;;;;;7.33;3.27;;;;;;;31.59;40.09;99444.22;154529;1098;103128;-69
2021/06/22 10:55:59;;;;;;;8.90;3.47;;;;;;;31.61;39.09;99433.69;154524;1098;103122;-68
2021/06/22 10:59:23;;;;;;;7.70;3.43;;;;;;;31.61;37.94;99437.25;154482;1093;103193;-69
2021/06/22 11:03:01;;;;;;;8.60;3.43;;;;;;;31.68;39.82;99440.39;154521;1098;103190;-68
2021/06/22 11:06:25;;;;;;;6.83;3.33;;;;;;;31.74;39.60;99430.05;154560;1093;103366;-69
2021/06/22 11:09:28;;;;;;;7.80;3.43;;;;;;;31.74;39.68;99435.56;154463;1093;103096;-69
2021/06/22 11:12:31;;;;;;;5.65;3.40;;;;;;;31.56;39.84;99426.34;154464;1098;103303;-68
2021/06/22 11:15:49;;;;;;;5.63;3.40;;;;;;;31.48;40.01;99433.42;154436;1093;103126;-69
2021/06/22 11:19:11;;;;;;;6.73;3.60;;;;;;;31.56;40.04;99423.58;154484;1098;103181;-69
2021/06/22 11:22:14;;;;;;;6.37;3.90;;;;;;;31.66;40.22;99428.02;154548;1098;103266;-68
2021/06/22 11:25:17;;;;;;;6.83;3.60;;;;;;;31.74;39.76;99426.45;154468;1098;103192;-69
2021/06/22 11:28:22;;;;;;;7.57;3.47;;;;;;;31.75;39.36;99425.34;154502;1093;103108;-69
2021/06/22 11:31:41;;;;;;;5.30;3.37;;;;;;;31.80;39.90;99425.22;154495;1098;103117;-69
2021/06/22 11:34:55;;;;;;;9.07;3.60;;;;;;;31.92;39.02;99421.88;154575;1098;103742;-69
2021/06/22 11:38:13;;;;;;;6.70;3.30;;;;;;;32.01;38.67;99426.34;154472;1098;103208;-69
2021/06/22 11:41:17;;;;;;;7.20;3.30;;;;;;;31.91;38.49;99423.80;154583;1093;103126;-68
2021/06/22 11:44:28;;;;;;;6.77;3.13;;;;;;;31.84;38.85;99427.02;154511;1093;103108;-68
2021/06/22 11:47:48;;;;;;;;;;;;;;;31.77;38.57;99429.41;154517;1098;103163;-69
2021/06/22 11:50:51;;;;;;;5.77;2.57;;;;;;;31.78;38.38;99433.00;154497;1093;103118;-69
2021/06/22 11:53:54;;;;;;;5.80;3.43;;;;;;;31.76;38.25;99424.20;154485;1093;103273;-69
2021/06/22 11:56:57;;;;;;;7.53;3.23;;;;;;;31.79;38.75;99426.34;154525;1098;103142;-68
2021/06/22 12:00:08;;;;;;;8.00;3.50;;;;;;;31.94;38.54;99414.09;154500;1098;103119;-69
2021/06/22 12:03:15;;;;;;;5.90;3.15;;;;;;;32.16;38.65;99414.09;154447;1093;103189;-69
2021/06/22 12:06:21;;;;;;;6.83;3.60;;;;;;;32.31;38.47;99403.73;154505;1093;103262;-69
2021/06/22 12:09:24;;;;;;;6.87;3.50;;;;;;;32.41;38.61;99398.76;154482;1093;103256;-69
2021/06/22 12:12:41;;;;;;;6.43;4.13;;;;;;;32.53;38.91;99405.59;154545;1094;103096;-69
2021/06/22 12:15:44;;;;;;;6.50;3.83;;;;;;;32.62;38.37;99406.46;154467;1098;103189;-69
2021/06/22 12:18:48;;;;;;;5.30;3.43;;;;;;;32.66;38.74;99405.52;154465;1093;103196;-69
2021/06/22 12:21:53;;;;;;;7.20;3.80;;;;;;;32.66;38.05;99401.92;154641;1093;103203;-69
2021/06/22 12:24:56;;;;;;;6.73;3.37;;;;;;;32.60;37.95;99397.69;154526;1098;103395;-69
2021/06/22 12:27:59;;;;;;;5.03;3.20;;;;;;;32.61;38.36;99402.09;154496;1093;103190;-69
2021/06/22 12:31:04;;;;;;;5.47;3.50;;;;;;;32.63;38.13;99400.62;154253;1098;103188;-69
2021/06/22 12:34:08;;;;;;;7.57;3.07;;;;;;;32.66;38.17;99405.52;154200;1098;103197;-69
2021/06/22 12:37:20;;;;;;;6.55;3.10;;;;;;;32.71;38.25;99412.82;154328;1098;103257;-68
2021/06/22 12:40:23;;;;;;;5.53;3.40;;;;;;;32.74;37.45;99412.19;154501;1098;103259;-68
2021/06/22 12:43:44;;;;;;;5.93;3.60;;;;;;;32.77;37.21;99411.53;154500;1098;103193;-68
2021/06/22 12:46:47;;;;;;;10.23;3.90;;;;;;;32.68;37.70;99407.93;154516;1093;103156;-68
2021/06/22 12:49:54;;;;;;;5.50;3.10;;;;;;;32.70;37.66;99408.45;154396;1098;103174;-68
2021/06/22 12:52:59;;;;;;;4.90;3.25;;;;;;;32.61;37.47;99413.13;154498;1098;103237;-68
2021/06/22 12:56:11;;;;;;;4.03;3.30;;;;;;;32.45;37.11;99404.42;154587;1098;103352;-68
2021/06/22 12:59:15;;;;;;;7.33;3.47;;;;;;;32.35;37.54;99407.48;154619;1093;103280;-68
2021/06/22 13:02:21;;;;;;;8.63;3.20;;;;;;;32.30;37.41;99419.50;154592;1098;103150;-68
2021/06/22 13:05:35;;;;;;;6.23;3.50;;;;;;;32.35;37.46;99408.29;154489;1093;103133;-68
2021/06/22 13:08:38;;;;;;;3.63;2.93;;;;;;;32.48;37.81;99412.08;154499;1093;103288;-68
2021/06/22 13:11:47;;;;;;;4.37;2.77;;;;;;;32.63;37.49;99416.39;154470;1093;103286;-67
2021/06/22 13:14:52;;;;;;;4.77;2.93;;;;;;;32.78;36.71;99417.89;154551;1093;103127;-67
2021/06/22 13:17:55;;;;;;;5.13;2.97;;;;;;;32.90;37.18;99409.77;154508;1093;103134;-68
2021/06/22 13:20:58;;;;;;;5.00;2.83;;;;;;;33.00;36.75;99420.50;154031;1098;103234;-68
2021/06/22 13:24:01;;;;;;;3.87;2.80;;;;;;;33.06;36.29;99429.45;154460;1098;103303;-68
2021/06/22 13:27:07;;;;;;;5.03;3.10;;;;;;;33.04;36.61;99427.01;154447;1098;103310;-68
2021/06/22 13:30:15;;;;;;;5.07;2.93;;;;;;;33.01;36.26;99426.87;154625;1093;103115;-68
2021/06/22 13:33:27;;;;;;;5.00;3.27;;;;;;;32.95;36.82;99428.13;154488;1098;103212;-68
2021/06/22 13:36:31;;;;;;;4.43;2.93;;;;;;;32.89;36.71;99424.71;154472;1098;103108;-68
2021/06/22 13:39:34;;;;;;;5.27;3.17;;;;;;;32.80;36.08;99424.71;154530;1098;103282;-68
2021/06/22 13:42:37;;;;;;;3.50;3.10;;;;;;;32.73;36.50;99424.36;154486;1098;103186;-73
2021/06/22 13:45:44;;;;;;;6.80;2.98;;;;;;;32.72;35.84;99427.44;154558;1093;103187;-67
2021/06/22 13:48:50;;;;;;;3.10;2.63;;;;;;;32.75;35.95;99435.91;154223;1098;103619;-70
2021/06/22 13:51:59;;;;;;;6.17;3.40;;;;;;;32.80;36.54;99443.25;154251;1098;103130;-70
2021/06/22 13:55:04;;;;;;;6.90;3.00;;;;;;;32.82;36.46;99452.02;154367;1098;103289;-70
2021/06/22 13:58:08;;;;;;;14.37;4.63;;;;;;;32.71;36.92;99495.70;154207;1093;103280;-70
2021/06/22 14:01:12;;;;;;;9.17;5.37;;;;;;;31.87;37.95;99511.09;154500;1098;103121;-70
2021/06/22 14:04:16;;;;;;;14.70;6.33;;;;;;;30.78;40.85;99514.55;154330;1093;103195;-72
2021/06/22 14:07:19;;;;;;;10.33;5.73;;;;;;;30.01;39.93;99515.92;154456;1098;103476;-69
2021/06/22 14:10:23;;;;;;;9.73;6.17;;;;;;;29.55;42.73;99555.09;154538;1098;103254;-69
2021/06/22 14:13:29;;;;;;;12.07;5.77;;;;;;;29.01;41.75;99542.59;154491;1098;103246;-70